Terminal Aerodrome Forecast
Issued by NWS

Home | Current Version | Previous Version | Graphics & Text | Print | Product List | Glossary On
Versions: 1 2 3 4 5 6 7 8 9 10 11 12 13 14 15 16 17 18 19 20 21
710
FTUS43 KGRB 221319 AAA
TAFMTW
TAF AMD
KMTW 221319Z 2213/2312 18005KT 4SM BR SKC
     FM221500 19008KT 6SM BR FEW250
     FM221900 18012KT P6SM FEW250
     FM230000 18008KT P6SM SKC=

USA.gov is the U.S. government's official web portal to all federal, state and local government web resources and services.